Time;durP1;ratioP1;P1;durP2;ratioP2;P2;SDS_P1;SDS_P2;PMS_P1;PMS_P2;Temp;Humidity;BMP_temperature;BMP_pressure;BME280_temperature;BME280_humidity;BME280_pressure;Samples;Min_cycle;Max_cycle;Signal;HPM_P1;HPM_P2
2021/03/27 00:01:25;;;;;;;7.57;6.63;;;;;;;;;;5038189;28;20396;-67
2021/03/27 00:03:55;;;;;;;7.93;7.03;;;;;;;;;;5038340;28;20460;-67
2021/03/27 00:06:24;;;;;;;7.78;6.97;;;;;;;;;;5056414;28;20887;-67
2021/03/27 00:08:52;;;;;;;9.85;7.30;;;;;;;;;;5058574;28;20399;-67
2021/03/27 00:11:22;;;;;;;9.27;8.02;;;;;;;;;;5057925;28;20896;-67
2021/03/27 00:13:52;;;;;;;9.23;7.80;;;;;;;;;;5058183;28;20752;-67
2021/03/27 00:16:21;;;;;;;8.20;7.27;;;;;;;;;;5073632;28;20397;-67
2021/03/27 00:18:52;;;;;;;11.55;8.73;;;;;;;;;;5053633;28;20402;-67
2021/03/27 00:21:21;;;;;;;11.73;9.15;;;;;;;;;;5048222;28;20429;-67
2021/03/27 00:23:52;;;;;;;10.48;7.72;;;;;;;;;;5057885;28;20398;-67
2021/03/27 00:26:23;;;;;;;9.73;7.90;;;;;;;;;;5058170;28;20397;-67
2021/03/27 00:28:51;;;;;;;9.38;7.90;;;;;;;;;;5057861;28;20393;-67
2021/03/27 00:31:19;;;;;;;9.15;7.60;;;;;;;;;;5058049;28;20417;-67
2021/03/27 00:33:47;;;;;;;11.23;8.93;;;;;;;;;;5056425;28;20397;-67
2021/03/27 00:36:15;;;;;;;12.15;9.25;;;;;;;;;;5058168;28;20476;-67
2021/03/27 00:38:42;;;;;;;11.15;9.68;;;;;;;;;;5057928;28;20966;-67
2021/03/27 00:41:11;;;;;;;14.27;10.25;;;;;;;;;;5057973;28;20421;-67
2021/03/27 00:43:40;;;;;;;14.57;10.77;;;;;;;;;;5053545;28;20411;-67
2021/03/27 00:46:08;;;;;;;14.07;10.90;;;;;;;;;;5043306;28;20455;-67
2021/03/27 00:48:37;;;;;;;11.05;9.23;;;;;;;;;;5046608;28;20444;-66
2021/03/27 00:51:04;;;;;;;9.93;8.27;;;;;;;;;;5071257;28;20509;-67
2021/03/27 00:53:35;;;;;;;9.40;8.20;;;;;;;;;;5047653;28;20731;-66
2021/03/27 00:56:03;;;;;;;11.98;9.48;;;;;;;;;;5049620;28;20420;-67
2021/03/27 00:58:37;;;;;;;9.68;8.10;;;;;;;;;;5055048;28;20752;-67
2021/03/27 01:01:05;;;;;;;9.23;7.95;;;;;;;;;;5054585;28;20405;-66
2021/03/27 01:03:33;;;;;;;9.75;8.05;;;;;;;;;;5054406;28;20467;-67
2021/03/27 01:06:01;;;;;;;9.77;8.40;;;;;;;;;;5054564;28;20436;-67
2021/03/27 01:08:28;;;;;;;10.82;8.63;;;;;;;;;;5054537;28;20408;-67
2021/03/27 01:10:57;;;;;;;9.70;8.50;;;;;;;;;;5054710;28;20448;-67
2021/03/27 01:13:27;;;;;;;10.38;7.80;;;;;;;;;;5050167;28;20397;-67
2021/03/27 01:15:55;;;;;;;8.35;7.50;;;;;;;;;;5054467;28;20420;-67
2021/03/27 01:18:23;;;;;;;14.48;9.80;;;;;;;;;;5053915;28;20398;-67
2021/03/27 01:20:51;;;;;;;9.45;8.05;;;;;;;;;;5047046;28;20399;-67
2021/03/27 01:23:18;;;;;;;10.77;8.93;;;;;;;;;;5047900;28;20465;-67
2021/03/27 01:25:44;;;;;;;9.88;8.38;;;;;;;;;;5053999;28;20398;-67
2021/03/27 01:28:17;;;;;;;11.93;9.45;;;;;;;;;;5054151;28;20400;-67
2021/03/27 01:30:46;;;;;;;10.50;9.40;;;;;;;;;;5053944;28;20448;-67
2021/03/27 01:33:19;;;;;;;10.30;9.02;;;;;;;;;;5042913;28;20395;-67
2021/03/27 01:35:46;;;;;;;10.80;8.90;;;;;;;;;;5052013;28;20397;-67
2021/03/27 01:38:14;;;;;;;9.13;8.23;;;;;;;;;;5053995;28;20396;-67
2021/03/27 01:40:46;;;;;;;9.60;8.68;;;;;;;;;;5037188;28;20478;-67
2021/03/27 01:43:19;;;;;;;10.55;9.00;;;;;;;;;;5043631;28;20393;-67
2021/03/27 01:45:54;;;;;;;11.30;9.23;;;;;;;;;;5039798;28;21048;-67
2021/03/27 01:48:26;;;;;;;12.60;10.30;;;;;;;;;;5051745;28;20853;-67
2021/03/27 01:50:55;;;;;;;11.77;9.50;;;;;;;;;;5053510;28;20450;-67
2021/03/27 01:53:24;;;;;;;11.10;9.33;;;;;;;;;;5046112;28;20391;-67
2021/03/27 01:55:57;;;;;;;10.50;8.77;;;;;;;;;;5048998;28;20448;-67
2021/03/27 01:58:24;;;;;;;9.45;8.45;;;;;;;;;;5051970;28;20397;-67
2021/03/27 02:00:52;;;;;;;10.75;8.70;;;;;;;;;;5053667;28;20432;-68
2021/03/27 02:03:21;;;;;;;9.93;8.93;;;;;;;;;;5058510;23;20401;-72
2021/03/27 02:05:51;;;;;;;9.50;8.38;;;;;;;;;;4988464;28;20418;-71
2021/03/27 02:08:19;;;;;;;11.23;9.17;;;;;;;;;;4983367;28;20413;-71
2021/03/27 02:10:48;;;;;;;9.50;8.60;;;;;;;;;;4979215;28;20419;-70
2021/03/27 02:13:19;;;;;;;12.93;9.32;;;;;;;;;;4993935;28;20434;-70
2021/03/27 02:15:52;;;;;;;9.70;8.68;;;;;;;;;;4973355;28;20887;-70
2021/03/27 02:18:21;;;;;;;12.60;10.20;;;;;;;;;;4988285;28;20456;-70
2021/03/27 02:20:59;;;;;;;9.52;8.27;;;;;;;;;;4992443;28;20402;-70
2021/03/27 02:23:28;;;;;;;10.00;8.30;;;;;;;;;;4993998;28;20402;-70
2021/03/27 02:26:04;;;;;;;12.25;10.02;;;;;;;;;;4994009;28;20893;-70
2021/03/27 02:28:40;;;;;;;11.40;10.17;;;;;;;;;;4974902;28;20975;-70
2021/03/27 02:31:11;;;;;;;15.88;11.93;;;;;;;;;;4993112;28;20422;-71
2021/03/27 02:33:39;;;;;;;13.32;11.77;;;;;;;;;;4989788;28;20405;-71
2021/03/27 02:36:19;;;;;;;11.98;10.68;;;;;;;;;;4974600;28;20897;-71
2021/03/27 02:38:51;;;;;;;11.77;9.50;;;;;;;;;;4995404;28;20484;-70
2021/03/27 02:41:27;;;;;;;11.77;9.75;;;;;;;;;;4992379;28;20870;-72
2021/03/27 02:43:56;;;;;;;12.73;10.63;;;;;;;;;;4977821;28;20983;-70
2021/03/27 02:46:28;;;;;;;13.02;10.35;;;;;;;;;;4972997;28;20418;-70
2021/03/27 02:48:58;;;;;;;14.85;10.73;;;;;;;;;;4993623;28;20399;-70
2021/03/27 02:51:26;;;;;;;13.80;11.23;;;;;;;;;;5007050;28;20429;-71
2021/03/27 02:53:58;;;;;;;15.02;11.48;;;;;;;;;;4977741;28;20476;-70
2021/03/27 02:56:28;;;;;;;12.18;10.35;;;;;;;;;;4993261;28;20861;-70
2021/03/27 02:59:16;;;;;;;12.10;10.13;;;;;;;;;;4987098;28;20424;-70
2021/03/27 03:01:46;;;;;;;11.82;10.23;;;;;;;;;;4992114;28;20406;-70
2021/03/27 03:04:15;;;;;;;11.05;9.95;;;;;;;;;;4977125;28;20508;-71
2021/03/27 03:06:45;;;;;;;11.38;9.88;;;;;;;;;;4998330;28;20431;-71
2021/03/27 03:09:14;;;;;;;11.48;10.30;;;;;;;;;;5001242;28;20402;-70
2021/03/27 03:11:45;;;;;;;13.27;11.38;;;;;;;;;;4993173;28;20504;-73
2021/03/27 03:14:15;;;;;;;12.43;10.55;;;;;;;;;;4975761;28;20461;-74
2021/03/27 03:16:45;;;;;;;12.77;10.90;;;;;;;;;;4993121;28;20406;-73
2021/03/27 03:19:16;;;;;;;11.82;10.63;;;;;;;;;;4976773;28;20902;-73
2021/03/27 03:21:45;;;;;;;12.05;10.35;;;;;;;;;;4994428;28;20874;-73
2021/03/27 03:24:15;;;;;;;13.88;10.77;;;;;;;;;;4992747;28;20402;-74
2021/03/27 03:26:50;;;;;;;11.55;10.10;;;;;;;;;;4977446;28;20432;-72
2021/03/27 03:29:21;;;;;;;12.80;10.60;;;;;;;;;;4962709;28;20409;-73
2021/03/27 03:31:57;;;;;;;13.07;11.23;;;;;;;;;;4992672;28;20457;-73
2021/03/27 03:34:41;;;;;;;13.02;10.80;;;;;;;;;;4978696;28;20944;-73
2021/03/27 03:37:12;;;;;;;13.35;10.77;;;;;;;;;;4979244;28;20399;-73
2021/03/27 03:40:00;;;;;;;14.98;11.70;;;;;;;;;;4992899;28;20409;-73
2021/03/27 03:42:41;;;;;;;15.30;11.85;;;;;;;;;;4977635;28;20902;-73
2021/03/27 03:45:10;;;;;;;11.73;10.53;;;;;;;;;;4993016;28;20409;-73
2021/03/27 03:47:41;;;;;;;11.30;9.98;;;;;;;;;;4991230;28;20406;-73
2021/03/27 03:50:14;;;;;;;13.20;10.25;;;;;;;;;;4994633;28;20427;-73
2021/03/27 03:52:48;;;;;;;13.25;10.75;;;;;;;;;;4998218;28;20388;-74
2021/03/27 03:55:22;;;;;;;11.48;10.32;;;;;;;;;;4981015;28;20408;-73
2021/03/27 03:58:06;;;;;;;13.30;11.57;;;;;;;;;;4986191;28;20406;-73
2021/03/27 04:00:35;;;;;;;15.10;13.10;;;;;;;;;;4963632;28;20537;-73
2021/03/27 04:03:08;;;;;;;12.88;11.30;;;;;;;;;;4999054;28;20408;-73
2021/03/27 04:05:37;;;;;;;11.30;10.10;;;;;;;;;;4987308;28;20402;-73
2021/03/27 04:08:10;;;;;;;12.15;10.85;;;;;;;;;;4985184;28;20458;-73
2021/03/27 04:10:37;;;;;;;15.32;13.10;;;;;;;;;;4956192;28;20534;-73
2021/03/27 04:13:06;;;;;;;14.75;11.35;;;;;;;;;;4988287;28;20905;-73
2021/03/27 04:15:35;;;;;;;11.38;10.18;;;;;;;;;;4976668;28;20438;-73
2021/03/27 04:18:05;;;;;;;13.07;11.63;;;;;;;;;;4992465;28;20441;-73
2021/03/27 04:20:36;;;;;;;14.15;12.40;;;;;;;;;;4992557;28;20438;-73
2021/03/27 04:23:08;;;;;;;18.13;13.77;;;;;;;;;;4976869;28;20823;-73
2021/03/27 04:25:36;;;;;;;16.27;14.55;;;;;;;;;;4993912;28;20399;-74
2021/03/27 04:28:06;;;;;;;16.03;13.53;;;;;;;;;;4994181;28;20406;-74
2021/03/27 04:30:37;;;;;;;16.35;14.40;;;;;;;;;;4994887;28;20406;-73
2021/03/27 04:33:08;;;;;;;21.15;14.98;;;;;;;;;;4980273;28;20428;-73
2021/03/27 04:35:45;;;;;;;18.33;14.90;;;;;;;;;;5009573;28;20397;-74
2021/03/27 04:38:16;;;;;;;19.25;14.57;;;;;;;;;;4997694;28;20425;-73
2021/03/27 04:40:46;;;;;;;14.82;12.90;;;;;;;;;;5000130;28;20442;-73
2021/03/27 04:43:16;;;;;;;15.57;13.03;;;;;;;;;;5004604;28;20498;-74
2021/03/27 04:45:45;;;;;;;13.38;11.98;;;;;;;;;;4997631;28;20406;-74
2021/03/27 04:48:24;;;;;;;14.18;12.38;;;;;;;;;;4988007;28;20492;-74
2021/03/27 04:51:05;;;;;;;16.02;12.57;;;;;;;;;;4993284;28;20425;-73
2021/03/27 04:53:33;;;;;;;14.40;12.60;;;;;;;;;;4995745;28;20394;-73
2021/03/27 04:56:07;;;;;;;14.73;12.77;;;;;;;;;;4981133;28;20401;-74
2021/03/27 04:58:36;;;;;;;17.15;13.50;;;;;;;;;;4995721;28;20785;-73
2021/03/27 05:01:12;;;;;;;14.60;12.90;;;;;;;;;;4995244;28;20755;-73
2021/03/27 05:03:44;;;;;;;16.42;12.35;;;;;;;;;;4996983;28;20418;-73
2021/03/27 05:06:17;;;;;;;15.32;13.07;;;;;;;;;;4996824;28;20889;-74
2021/03/27 05:09:01;;;;;;;13.40;11.87;;;;;;;;;;4995580;28;20912;-74
2021/03/27 05:11:39;;;;;;;16.73;13.05;;;;;;;;;;4996562;28;20513;-73
2021/03/27 05:14:12;;;;;;;14.07;12.07;;;;;;;;;;4985363;28;20417;-74
2021/03/27 05:16:40;;;;;;;14.15;11.90;;;;;;;;;;5007703;28;20864;-73
2021/03/27 05:19:11;;;;;;;12.82;11.50;;;;;;;;;;5005982;28;20409;-73
2021/03/27 05:21:45;;;;;;;13.43;12.02;;;;;;;;;;4996797;28;20485;-73
2021/03/27 05:24:15;;;;;;;13.02;10.75;;;;;;;;;;4995283;28;20407;-74
2021/03/27 05:26:48;;;;;;;14.65;11.30;;;;;;;;;;4995030;28;20498;-73
2021/03/27 05:29:29;;;;;;;15.45;13.20;;;;;;;;;;4996790;28;20497;-73
2021/03/27 05:32:02;;;;;;;14.23;12.47;;;;;;;;;;4979042;28;20426;-74
2021/03/27 05:34:32;;;;;;;13.57;12.17;;;;;;;;;;4996767;28;20486;-74
2021/03/27 05:37:13;;;;;;;17.73;13.25;;;;;;;;;;4978956;28;20489;-74
2021/03/27 05:39:44;;;;;;;17.98;15.30;;;;;;;;;;4990704;28;20402;-75
2021/03/27 05:42:33;;;;;;;20.98;15.48;;;;;;;;;;4988626;28;20926;-75
2021/03/27 05:45:14;;;;;;;17.98;15.68;;;;;;;;;;4977273;28;20427;-74
2021/03/27 05:47:58;;;;;;;18.20;16.20;;;;;;;;;;4992086;28;20409;-73
2021/03/27 05:50:45;;;;;;;21.15;15.80;;;;;;;;;;4996200;28;20394;-73
2021/03/27 05:53:38;;;;;;;16.80;15.02;;;;;;;;;;4991776;28;20493;-73
2021/03/27 05:56:31;;;;;;;16.30;14.43;;;9.20;99.90;;;;;;4972294;28;20801;-73
2021/03/27 05:59:06;;;;;;;15.35;13.15;;;;;;;;;;4979063;28;20419;-73
2021/03/27 06:01:44;;;;;;;18.25;14.43;;;;;;;;;;4982941;28;20937;-73
2021/03/27 06:04:29;;;;;;;21.17;15.90;;;;;;;;;;4978126;28;20418;-73
2021/03/27 06:07:25;;;;;;;16.50;13.77;;;;;;;;;;4986741;28;20410;-73
2021/03/27 06:10:05;;;;;;;17.20;15.23;;;;;;;;;;4958912;28;20440;-73
2021/03/27 06:12:58;;;;;;;16.37;14.27;;;;;;;;;;4992534;28;20495;-73
2021/03/27 06:15:37;;;;;;;15.07;13.48;;;;;;;;;;4946792;28;20395;-73
2021/03/27 06:18:34;;;;;;;14.77;13.10;;;;;;;;;;4978431;28;20514;-73
2021/03/27 06:21:17;;;;;;;17.70;14.65;;;;;;;;;;4996128;28;20474;-73
2021/03/27 06:24:07;;;;;;;14.98;13.48;;;;;;;;;;4978106;28;20497;-73
2021/03/27 06:26:38;;;;;;;21.10;16.00;;;;;;;;;;4973632;28;20406;-73
2021/03/27 06:29:14;;;;;;;15.55;13.07;;;;;;;;;;5005829;28;20402;-73
2021/03/27 06:32:00;;;;;;;14.52;12.82;;;;;;;;;;4995769;28;20441;-74
2021/03/27 06:34:47;;;;;;;19.95;14.73;;;;;;;;;;4967619;28;20418;-74
2021/03/27 06:37:23;;;;;;;20.10;16.23;;;;;;;;;;4979198;28;20405;-74
2021/03/27 06:40:20;;;;;;;20.80;16.65;;;;;;;;;;4977879;28;20890;-74
2021/03/27 06:43:04;;;;;;;20.83;16.67;;;;;;;;;;4893619;29;20418;-75
2021/03/27 06:45:35;;;;;;;21.90;16.57;;;;;;;;;;4994644;28;20541;-73
2021/03/27 06:48:46;;;;;;;19.75;16.25;;;10.20;99.90;;;;;;4987402;28;20401;-71
2021/03/27 06:51:42;;;;;;;19.77;17.05;;;10.20;99.90;;;;;;4997988;28;20413;-71
2021/03/27 06:54:42;;;;;;;17.10;15.25;;;10.30;99.90;;;;;;4998077;28;20749;-71
2021/03/27 06:57:29;;;;;;;16.13;13.95;;;10.50;99.90;;;;;;4991674;28;20418;-72
2021/03/27 07:00:35;;;;;;;17.20;14.25;;;10.70;99.90;;;;;;4964683;28;20461;-72
2021/03/27 07:03:46;;;;;;;16.67;13.70;;;10.90;99.90;;;;;;4991847;28;20394;-72
2021/03/27 07:06:35;;;;;;;20.27;15.43;;;11.00;99.90;;;;;;4992949;28;20751;-72
2021/03/27 07:09:42;;;;;;;17.17;14.00;;;11.10;99.90;;;;;;4976889;28;20897;-72
2021/03/27 07:12:26;;;;;;;16.65;13.90;;;11.20;99.90;;;;;;4983973;28;20422;-72
2021/03/27 07:15:21;;;;;;;17.27;14.48;;;11.40;99.90;;;;;;4992965;28;20402;-72
2021/03/27 07:17:59;;;;;;;16.27;13.73;;;11.50;99.90;;;;;;4995088;28;20402;-72
2021/03/27 07:20:55;;;;;;;16.90;14.13;;;11.50;99.90;;;;;;4976949;28;20894;-72
2021/03/27 07:23:55;;;;;;;15.88;13.40;;;11.60;99.90;;;;;;4992494;28;20477;-73
2021/03/27 07:26:58;;;;;;;15.23;13.63;;;11.60;99.90;;;;;;4994552;28;20489;-72
2021/03/27 07:29:48;;;;;;;14.93;13.43;;;11.70;99.90;;;;;;4990591;28;20705;-73
2021/03/27 07:32:36;;;;;;;16.00;13.90;;;11.70;99.90;;;;;;4979493;28;20415;-72
2021/03/27 07:35:17;;;;;;;14.25;12.75;;;11.80;99.90;;;;;;4992930;28;20393;-72
2021/03/27 07:38:01;;;;;;;14.90;13.30;;;;;;;;;;4981501;28;20414;-72
2021/03/27 07:40:36;;;;;;;18.13;15.45;;;;;;;;;;4976755;28;20402;-72
2021/03/27 07:43:21;;;;;;;17.50;14.60;;;;;;;;;;4993011;28;20402;-73
2021/03/27 07:46:14;;;;;;;15.60;13.90;;;11.90;99.90;;;;;;4992401;28;20870;-72
2021/03/27 07:49:21;;;;;;;19.42;16.10;;;12.00;99.90;;;;;;4992618;28;20460;-72
2021/03/27 07:52:25;;;;;;;22.10;16.27;;;11.90;99.90;;;;;;4958612;28;20910;-72
2021/03/27 07:55:32;;;;;;;16.98;14.35;;;11.80;99.90;;;;;;4966144;28;20501;-72
2021/03/27 07:58:18;;;;;;;21.35;16.10;;;11.80;99.90;;;;;;4993126;28;20449;-72
2021/03/27 08:01:23;;;;;;;17.13;14.55;;;11.80;99.90;;;;;;4975203;28;20755;-73
2021/03/27 08:04:16;;;;;;;22.13;15.68;;;11.90;99.90;;;;;;4972840;28;20426;-72
2021/03/27 08:06:51;;;;;;;17.25;14.60;;;11.90;99.90;;;;;;4966405;28;20561;-72
2021/03/27 08:09:58;;;;;;;18.88;15.68;;;12.10;99.90;;;;;;4996302;28;20390;-73
2021/03/27 08:12:58;;;;;;;17.25;14.65;;;12.30;99.90;;;;;;4938954;28;20525;-72
2021/03/27 08:15:48;;;;;;;19.63;15.77;;;12.50;99.90;;;;;;4995356;28;20410;-73
2021/03/27 08:19:04;;;;;;;17.33;15.32;;;12.50;99.90;;;;;;4997863;28;20386;-72
2021/03/27 08:21:36;;;;;;;18.63;14.57;;;12.40;99.90;;;;;;4954416;28;20488;-72
2021/03/27 08:24:12;;;;;;;18.83;14.05;;;12.50;99.90;;;;;;4962402;28;20438;-73
2021/03/27 08:27:11;;;;;;;17.35;14.35;;;12.70;99.90;;;;;;4988080;28;20405;-73
2021/03/27 08:30:26;;;;;;;19.13;15.43;;;12.90;99.90;;;;;;4989284;28;20444;-73
2021/03/27 08:33:23;;;;;;;18.98;15.55;;;12.80;99.90;;;;;;4907617;29;20501;-72
2021/03/27 08:36:24;;;;;;;16.13;13.95;;;12.90;99.90;;;;;;4976197;28;20460;-72
2021/03/27 08:39:08;;;;;;;20.13;14.98;;;;;;;;;;4953262;28;20421;-72
2021/03/27 08:41:50;;;;;;;18.48;14.95;;;13.20;99.90;;;;;;4982871;28;20878;-72
2021/03/27 08:44:42;;;;;;;20.23;15.17;;;13.30;99.90;;;;;;4983514;28;20401;-72
2021/03/27 08:47:35;;;;;;;15.68;13.90;;;13.50;99.90;;;;;;4995724;28;20500;-72
2021/03/27 08:50:36;;;;;;;17.95;14.90;;;13.80;99.90;;;;;;4987278;28;20453;-72
2021/03/27 08:53:31;;;;;;;15.43;13.77;;;13.90;99.90;;;;;;4932481;28;20886;-72
2021/03/27 08:56:38;;;;;;;14.87;12.20;;;14.30;99.90;;;;;;4990800;28;20748;-72
2021/03/27 08:59:18;;;;;;;15.63;12.27;;;;;;;;;;4979544;28;20423;-72
2021/03/27 09:01:58;;;;;;;16.17;12.23;;;;;;;;;;4998007;28;20397;-72
2021/03/27 09:04:32;;;;;;;14.98;12.23;;;;;;;;;;5003139;28;20417;-72
2021/03/27 09:07:09;;;;;;;15.43;12.32;;;;;;;;;;4980879;28;20406;-72
2021/03/27 09:09:49;;;;;;;14.93;12.70;;;;;;;;;;4978638;28;20480;-72
2021/03/27 09:12:39;;;;;;;14.20;12.50;;;14.40;99.90;;;;;;4989982;28;20940;-72
2021/03/27 09:15:19;;;;;;;17.70;12.30;;;14.60;99.90;;;;;;4982532;28;20422;-72
2021/03/27 09:18:13;;;;;;;14.52;12.05;;;15.00;99.50;;;;;;5005580;28;20477;-72
2021/03/27 09:20:50;;;;;;;14.80;12.40;;;15.10;98.70;;;;;;4974237;28;20417;-72
2021/03/27 09:23:38;;;;;;;17.20;12.75;;;15.20;99.30;;;;;;4978808;28;20437;-72
2021/03/27 09:26:20;;;;;;;15.32;12.13;;;15.30;99.20;;;;;;4985527;28;20447;-72
2021/03/27 09:29:02;;;;;;;17.45;13.55;;;15.60;98.80;;;;;;4978634;28;20402;-72
2021/03/27 09:31:54;;;;;;;16.98;13.30;;;15.30;98.30;;;;;;4985578;28;20813;-73
2021/03/27 09:34:35;;;;;;;15.40;12.63;;;15.20;99.00;;;;;;4997883;28;20389;-72
2021/03/27 09:37:14;;;;;;;18.10;13.18;;;15.20;98.70;;;;;;4979939;28;20400;-72
2021/03/27 09:39:48;;;;;;;16.77;13.57;;;15.40;99.20;;;;;;4987118;28;20402;-72
2021/03/27 09:42:37;;;;;;;16.37;12.63;;;15.50;98.10;;;;;;4977787;28;20431;-72
2021/03/27 09:45:19;;;;;;;15.23;13.00;;;15.10;98.10;;;;;;4994824;28;20414;-72
2021/03/27 09:48:27;;;;;;;14.18;12.68;;;15.30;97.70;;;;;;4978351;28;20485;-72
2021/03/27 09:51:04;;;;;;;14.93;12.67;;;14.90;98.40;;;;;;4996657;28;20402;-72
2021/03/27 09:53:47;;;;;;;16.60;13.15;;;14.90;98.20;;;;;;4977189;28;20753;-72
2021/03/27 09:56:24;;;;;;;13.65;11.32;;;14.80;98.80;;;;;;4993005;28;20498;-73
2021/03/27 09:59:31;;;;;;;12.88;10.98;;;14.90;98.60;;;;;;4994481;28;20445;-73
2021/03/27 10:02:02;;;;;;;14.15;11.80;;;;;;;;;;4976627;28;20831;-72
2021/03/27 10:04:45;;;;;;;15.50;11.32;;;;;;;;;;4977812;28;20811;-73
2021/03/27 10:07:43;;;;;;;14.23;11.32;;;15.40;98.70;;;;;;4979106;28;20411;-73
2021/03/27 10:10:36;;;;;;;13.23;11.37;;;15.80;97.60;;;;;;4983731;28;20587;-73
2021/03/27 10:13:08;;;;;;;15.30;11.30;;;15.60;96.80;;;;;;4978753;28;20417;-73
2021/03/27 10:15:40;;;;;;;15.73;11.73;;;15.60;97.30;;;;;;5006067;28;20391;-73
2021/03/27 10:18:20;;;;;;;14.98;11.15;;;15.70;97.20;;;;;;4994689;28;20425;-73
2021/03/27 10:20:50;;;;;;;14.30;10.63;;;;;;;;;;4999381;28;20405;-73
2021/03/27 10:23:21;;;;;;;12.85;11.27;;;;;;;;;;4980965;28;20493;-72
2021/03/27 10:26:26;;;;;;;15.85;11.05;;;15.90;96.90;;;;;;4992654;28;20414;-72
2021/03/27 10:28:55;;;;;;;13.70;10.40;;;;;;;;;;4981555;28;20404;-72
2021/03/27 10:31:24;;;;;;;14.48;10.90;;;;;;;;;;5003857;28;20466;-72
2021/03/27 10:33:57;;;;;;;14.00;11.50;;;;;;;;;;4993534;28;20409;-72
2021/03/27 10:36:47;;;;;;;15.48;11.40;;;16.30;96.00;;;;;;4987265;28;20497;-72
2021/03/27 10:39:25;;;;;;;14.40;10.85;;;16.80;96.00;;;;;;4976825;28;20442;-72
2021/03/27 10:42:11;;;;;;;12.90;11.45;;;17.00;94.70;;;;;;4976149;28;20402;-72
2021/03/27 10:44:45;;;;;;;13.27;11.30;;;16.50;93.80;;;;;;4983394;28;20770;-72
2021/03/27 10:47:16;;;;;;;13.20;10.43;;;16.10;94.60;;;;;;4993244;28;20459;-72
2021/03/27 10:49:53;;;;;;;11.30;10.10;;;16.40;94.00;;;;;;4984598;28;20405;-72
2021/03/27 10:53:13;;;;;;;13.88;10.50;;;16.70;93.70;;;;;;4979311;28;20783;-72
2021/03/27 10:56:14;;;;;;;14.48;11.50;;;16.60;93.80;;;;;;4932480;28;20410;-72
2021/03/27 10:58:59;;;;;;;14.10;10.82;;;16.20;93.80;;;;;;4989775;28;20417;-72
2021/03/27 11:01:45;;;;;;;13.43;10.48;;;16.20;94.20;;;;;;4992913;28;20516;-72
2021/03/27 11:04:59;;;;;;;13.27;10.60;;;16.60;93.20;;;;;;4975295;28;20606;-73
2021/03/27 11:08:03;;;;;;;12.63;10.60;;;16.30;93.30;;;;;;4989476;28;20537;-72
2021/03/27 11:11:04;;;;;;;12.00;10.70;;;16.30;93.60;;;;;;4972542;28;20423;-72
2021/03/27 11:14:07;;;;;;;15.13;11.18;;;16.30;93.00;;;;;;4974960;28;20425;-73
2021/03/27 11:16:48;;;;;;;14.75;11.05;;;;;;;;;;4975782;28;20411;-72
2021/03/27 11:19:28;;;;;;;12.48;10.60;;;;;;;;;;4991761;28;20886;-72
2021/03/27 11:22:19;;;;;;;14.93;10.95;;;;;;;;;;4994586;28;20393;-73
2021/03/27 11:25:00;;;;;;;14.93;11.43;;;;;;;;;;4975706;28;20407;-72
2021/03/27 11:27:44;;;;;;;15.02;10.70;;;;;;;;;;4989761;28;20398;-73
2021/03/27 11:30:15;;;;;;;14.68;10.63;;;;;;;;;;4975183;28;20485;-73
2021/03/27 11:32:46;;;;;;;12.77;10.52;;;;;;;;;;4975277;28;20423;-72
2021/03/27 11:35:16;;;;;;;14.45;11.77;;;;;;;;;;4992751;28;20402;-72
2021/03/27 11:37:46;;;;;;;12.95;10.40;;;;;;;;;;4991548;28;20468;-72
2021/03/27 11:40:28;;;;;;;12.05;10.10;;;16.10;93.40;;;;;;4977054;28;20410;-72
2021/03/27 11:43:04;;;;;;;13.60;10.75;;;;;;;;;;4977025;28;20909;-72
2021/03/27 11:45:33;;;;;;;12.20;10.73;;;;;;;;;;4976882;28;20409;-72
2021/03/27 11:48:01;;;;;;;13.65;11.10;;;;;;;;;;4975546;28;20495;-72
2021/03/27 11:50:45;;;;;;;11.17;9.93;;;;;;;;;;4994330;28;20437;-72
2021/03/27 11:53:26;;;;;;;14.50;10.88;;;;;;;;;;4993766;28;20553;-72
2021/03/27 11:55:58;;;;;;;13.43;11.05;;;;;;;;;;4994346;28;20402;-72
2021/03/27 11:58:31;;;;;;;14.10;10.85;;;;;;;;;;4999746;28;20402;-72
2021/03/27 12:01:03;;;;;;;13.90;11.48;;;;;;;;;;4996871;28;20497;-73
2021/03/27 12:03:35;;;;;;;17.42;11.02;;;;;;;;;;4980214;28;20810;-72
2021/03/27 12:06:10;;;;;;;13.65;11.30;;;;;;;;;;4999205;28;20414;-72
2021/03/27 12:08:40;;;;;;;12.88;10.35;;;;;;;;;;4978652;28;20789;-72
2021/03/27 12:11:11;;;;;;;12.05;9.77;;;16.30;93.90;;;;;;4967912;28;20462;-72
2021/03/27 12:13:50;;;;;;;13.43;11.30;;;17.30;92.60;;;;;;4977057;28;20462;-72
2021/03/27 12:16:22;;;;;;;11.65;9.93;;;17.50;91.80;;;;;;4979981;28;20414;-72
2021/03/27 12:19:14;;;;;;;11.85;10.15;;;17.60;92.00;;;;;;4994338;28;20429;-72
2021/03/27 12:21:45;;;;;;;12.10;10.52;;;17.20;91.40;;;;;;4993449;28;20391;-72
2021/03/27 12:24:21;;;;;;;12.35;10.60;;;17.00;91.70;;;;;;4982407;28;20406;-72
2021/03/27 12:26:57;;;;;;;12.23;10.85;;;17.20;92.70;;;;;;4975445;28;20411;-72
2021/03/27 12:29:28;;;;;;;12.13;10.57;;;;;;;;;;4995209;28;20430;-72
2021/03/27 12:32:16;;;;;;;12.60;10.25;;;;;;;;;;4983853;28;20463;-72
2021/03/27 12:34:47;;;;;;;11.98;9.93;;;;;;;;;;4983156;28;20810;-72
2021/03/27 12:37:15;;;;;;;12.30;10.38;;;;;;;;;;5009084;28;20891;-72
2021/03/27 12:39:52;;;;;;;9.45;8.55;;;17.00;91.50;;;;;;4973370;28;20768;-73
2021/03/27 12:42:21;;;;;;;11.43;10.15;;;17.10;91.80;;;;;;5001091;28;20388;-71
2021/03/27 12:44:55;;;;;;;11.20;10.10;;;17.10;92.20;;;;;;5005805;28;20915;-72
2021/03/27 12:47:43;;;;;;;11.60;9.70;;;17.20;92.40;;;;;;4995345;28;20412;-71
2021/03/27 12:50:24;;;;;;;13.20;9.82;;;17.20;92.10;;;;;;4983061;28;20415;-72
2021/03/27 12:53:21;;;;;;;13.07;11.53;;;17.00;91.90;;;;;;4994792;28;20427;-72
2021/03/27 12:56:01;;;;;;;13.35;10.55;;;16.80;91.50;;;;;;4983997;28;20540;-72
2021/03/27 12:58:39;;;;;;;11.73;10.52;;;16.80;92.30;;;;;;4974998;28;20737;-71
2021/03/27 13:01:29;;;;;;;13.57;10.30;;;16.60;92.20;;;;;;4989641;28;20401;-71
2021/03/27 13:04:14;;;;;;;14.40;11.00;;;;;;;;;;4972112;28;20421;-72
2021/03/27 13:06:51;;;;;;;13.70;10.82;;;;;;;;;;4968998;28;20392;-73
2021/03/27 13:09:53;;;;;;;14.73;10.80;;;;;;;;;;4978006;28;20960;-72
2021/03/27 13:12:23;;;;;;;11.47;10.30;;;;;;;;;;4974985;28;20521;-72
2021/03/27 13:15:07;;;;;;;13.57;9.75;;;;;;;;;;4973724;28;20759;-79
2021/03/27 13:17:44;;;;;;;16.30;10.85;;;;;;;;;;4967249;28;20493;-80
2021/03/27 13:20:19;;;;;;;14.80;10.30;;;16.50;91.80;;;;;;4983126;28;20406;-82
2021/03/27 13:22:51;;;;;;;12.50;9.25;;;16.50;91.70;;;;;;4980941;28;20432;-77
2021/03/27 13:25:22;;;;;;;12.35;9.40;;;16.40;92.10;;;;;;4986868;28;20405;-74
2021/03/27 13:27:54;;;;;;;13.43;9.65;;;16.40;91.50;;;;;;4985470;28;20460;-82
2021/03/27 13:30:25;;;;;;;13.23;10.10;;;16.40;92.30;;;;;;4967272;28;20408;-74
2021/03/27 13:33:00;;;;;;;14.57;10.47;;;16.40;91.90;;;;;;4971810;28;20425;-76
2021/03/27 13:35:39;;;;;;;12.65;9.88;;;16.40;91.80;;;;;;4975909;28;20405;-79
2021/03/27 13:38:13;;;;;;;12.43;9.70;;;16.30;91.80;;;;;;4987458;28;20762;-73
2021/03/27 13:40:42;;;;;;;12.50;9.40;;;16.30;92.10;;;;;;4975835;28;20825;-72
2021/03/27 13:43:14;;;;;;;11.20;9.80;;;16.20;92.10;;;;;;4990265;28;20407;-71
2021/03/27 13:45:47;;;;;;;10.52;9.30;;;;;;;;;;4985781;28;20458;-72
2021/03/27 13:48:32;;;;;;;10.32;8.60;;;;;;;;;;4972188;28;20443;-72
2021/03/27 13:51:02;;;;;;;11.63;9.63;;;;;;;;;;4973629;28;20503;-71
2021/03/27 13:53:42;;;;;;;12.20;8.50;;;;;;;;;;4969128;28;20523;-71
2021/03/27 14:23:41;;;;;;;11.90;9.40;;;16.20;91.90;;;;;;5144485;27;20469;-72
2021/03/27 14:35:47;;;;;;;10.25;7.75;;;16.00;92.40;;;;;;5155207;27;20473;-74
2021/03/27 14:38:25;;;;;;;15.67;8.40;;;16.00;93.10;;;;;;5109854;28;20415;-73
2021/03/27 14:41:00;;;;;;;10.70;7.50;;;15.90;93.70;;;;;;5130166;28;20850;-73
2021/03/27 14:43:36;;;;;;;10.80;8.07;;;15.80;94.00;;;;;;5144229;27;20406;-73
2021/03/27 14:46:29;;;;;;;9.75;6.93;;;15.80;94.20;;;;;;5128867;28;20384;-73
2021/03/27 14:49:06;;;;;;;7.97;6.88;;;;;;;;;;5126152;28;20407;-73
2021/03/27 14:51:38;;;;;;;11.00;7.10;;;;;;;;;;5111494;28;20395;-73
2021/03/27 14:54:23;;;;;;;8.35;6.22;;;;;;;;;;5123896;28;20411;-73
2021/03/27 14:56:54;;;;;;;7.45;6.07;;;;;;;;;;5110074;28;20909;-73
2021/03/27 14:59:25;;;;;;;8.98;5.65;;;15.80;94.30;;;;;;5115444;27;20394;-72
2021/03/27 15:01:54;;;;;;;7.20;5.65;;;;;;;;;;5123499;27;20391;-73
2021/03/27 15:04:23;;;;;;;7.35;5.10;;;;;;;;;;5136377;27;20386;-73
2021/03/27 15:06:57;;;;;;;9.32;5.13;;;;;;;;;;5148043;27;20432;-73
2021/03/27 15:09:30;;;;;;;7.03;5.07;;;15.80;94.50;;;;;;5140716;27;20749;-74
2021/03/27 15:12:10;;;;;;;7.30;5.10;;;15.60;95.10;;;;;;5142924;27;20767;-73
2021/03/27 15:14:47;;;;;;;6.50;4.97;;;15.70;95.10;;;;;;5125402;27;20420;-73
2021/03/27 15:17:32;;;;;;;7.18;4.82;;;15.60;94.90;;;;;;5134732;27;20393;-73
2021/03/27 15:20:33;;;;;;;6.30;5.00;;;15.60;94.90;;;;;;5117490;27;20398;-74